createdAt,value
2023-03-19T00:00:49.410Z,9.70
2023-03-19T00:03:53.069Z,10.10
2023-03-19T00:06:56.694Z,9.77
2023-03-19T00:10:01.639Z,9.83
2023-03-19T00:13:05.218Z,10.23
2023-03-19T00:16:09.562Z,10.53
2023-03-19T00:19:13.119Z,10.07
2023-03-19T00:22:16.676Z,10.87
2023-03-19T00:25:21.921Z,10.53
2023-03-19T00:28:26.062Z,9.57
2023-03-19T00:31:31.509Z,10.53
2023-03-19T00:34:35.167Z,9.20
2023-03-19T00:37:38.687Z,8.83
2023-03-19T00:40:43.786Z,9.17
2023-03-19T00:43:47.717Z,7.97
2023-03-19T00:46:51.789Z,8.63
2023-03-19T00:49:55.796Z,8.13
2023-03-19T00:52:59.389Z,9.00
2023-03-19T00:56:04.289Z,8.43
2023-03-19T00:59:08.806Z,8.43
2023-03-19T01:02:12.357Z,8.70
2023-03-19T01:05:16.539Z,9.07
2023-03-19T01:08:20.771Z,9.13
2023-03-19T01:11:25.922Z,9.13
2023-03-19T01:14:29.381Z,8.83
2023-03-19T01:17:32.950Z,8.47
2023-03-19T01:20:37.967Z,9.10
2023-03-19T01:23:41.554Z,9.20
2023-03-19T01:26:46.520Z,8.90
2023-03-19T01:29:50.075Z,8.40
2023-03-19T01:32:53.971Z,8.50
2023-03-19T01:35:58.080Z,8.70
2023-03-19T01:39:01.725Z,8.50
2023-03-19T01:42:06.947Z,8.17
2023-03-19T01:45:33.496Z,9.13
2023-03-19T01:48:43.508Z,9.13
2023-03-19T01:51:49.150Z,8.17
2023-03-19T01:54:54.485Z,8.77
2023-03-19T01:57:59.808Z,8.57
2023-03-19T02:01:04.380Z,8.47
2023-03-19T02:04:08.845Z,8.83
2023-03-19T02:07:13.824Z,7.90
2023-03-19T02:10:18.948Z,8.30
2023-03-19T02:13:24.340Z,8.17
2023-03-19T02:16:28.140Z,8.20
2023-03-19T02:19:43.044Z,8.03
2023-03-19T02:22:56.568Z,8.23
2023-03-19T02:26:08.685Z,7.80
2023-03-19T02:29:12.743Z,7.23
2023-03-19T02:32:16.308Z,6.93
2023-03-19T02:35:20.425Z,6.97
2023-03-19T02:38:28.049Z,6.83
2023-03-19T02:41:35.466Z,6.43
2023-03-19T02:44:39.117Z,6.90
2023-03-19T02:47:42.872Z,6.30
2023-03-19T02:50:46.545Z,6.70
2023-03-19T02:53:50.212Z,6.70
2023-03-19T02:56:55.276Z,6.73
2023-03-19T02:59:58.737Z,6.33
2023-03-19T03:03:03.313Z,6.43
2023-03-19T03:06:07.452Z,7.00
2023-03-19T03:09:11.990Z,6.77
2023-03-19T03:12:17.164Z,6.47
2023-03-19T03:15:21.639Z,6.80
2023-03-19T03:18:25.223Z,6.77
2023-03-19T03:21:29.640Z,6.33
2023-03-19T03:24:33.510Z,6.70
2023-03-19T03:27:39.371Z,7.03
2023-03-19T03:30:42.926Z,7.23
2023-03-19T03:33:47.033Z,7.00
2023-03-19T03:36:50.976Z,6.90
2023-03-19T03:39:54.590Z,7.37
2023-03-19T03:42:59.511Z,7.07
2023-03-19T03:46:03.635Z,6.67
2023-03-19T03:49:07.336Z,7.20
2023-03-19T03:52:11.345Z,7.63
2023-03-19T03:55:15.023Z,7.43
2023-03-19T03:58:20.089Z,7.77
2023-03-19T04:01:23.752Z,7.57
2023-03-19T04:04:27.637Z,7.87
2023-03-19T04:07:31.313Z,7.47
2023-03-19T04:10:36.772Z,7.73
2023-03-19T04:13:42.303Z,7.33
2023-03-19T04:16:46.748Z,7.33
2023-03-19T04:19:50.305Z,7.33
2023-03-19T04:22:53.816Z,8.30
2023-03-19T04:26:00.575Z,8.27
2023-03-19T04:29:06.376Z,8.33
2023-03-19T04:32:09.971Z,8.93
2023-03-19T04:35:13.494Z,8.63
2023-03-19T04:38:17.026Z,8.53
2023-03-19T04:41:20.602Z,8.50
2023-03-19T04:44:25.440Z,7.90
2023-03-19T04:47:28.934Z,8.37
2023-03-19T04:50:32.589Z,9.53
2023-03-19T04:53:36.596Z,8.77
2023-03-19T04:56:40.145Z,9.37
2023-03-19T04:59:45.044Z,8.90
2023-03-19T05:02:48.695Z,8.40
2023-03-19T05:05:53.962Z,8.63
2023-03-19T05:08:57.559Z,7.90
2023-03-19T05:12:01.076Z,8.23
2023-03-19T05:15:07.289Z,8.83
2023-03-19T05:18:10.874Z,8.23
2023-03-19T05:21:15.961Z,9.07
2023-03-19T05:24:19.666Z,8.83
2023-03-19T05:27:23.373Z,9.30
2023-03-19T05:30:28.599Z,9.40
2023-03-19T05:33:32.428Z,8.57
2023-03-19T05:36:35.964Z,9.80
2023-03-19T05:39:39.616Z,9.40
2023-03-19T05:42:43.180Z,9.50
2023-03-19T05:45:53.355Z,9.00
2023-03-19T05:48:56.958Z,8.63
2023-03-19T05:52:00.609Z,10.03
2023-03-19T05:55:04.903Z,9.57
2023-03-19T05:58:08.841Z,9.53
2023-03-19T06:01:13.906Z,9.43
2023-03-19T06:04:17.471Z,10.47
2023-03-19T06:07:21.116Z,9.13
2023-03-19T06:10:24.608Z,9.33
2023-03-19T06:13:28.146Z,10.60
2023-03-19T06:16:33.029Z,10.70
2023-03-19T06:19:36.590Z,10.07
2023-03-19T06:22:40.193Z,10.10
2023-03-19T06:25:43.790Z,10.43
2023-03-19T06:28:47.378Z,10.67
2023-03-19T06:31:52.446Z,10.47
2023-03-19T06:34:56.632Z,10.30
2023-03-19T06:38:00.175Z,11.07
2023-03-19T06:41:04.214Z,10.13
2023-03-19T06:44:08.005Z,10.37
2023-03-19T06:47:14.333Z,10.73
2023-03-19T06:50:18.628Z,10.67
2023-03-19T06:53:22.234Z,10.70
2023-03-19T06:56:26.159Z,9.67
2023-03-19T06:59:29.639Z,9.63
2023-03-19T07:02:35.561Z,9.20
2023-03-19T07:05:39.152Z,9.73
2023-03-19T07:08:46.340Z,9.80
2023-03-19T07:11:49.804Z,9.13
2023-03-19T07:14:53.310Z,9.13
2023-03-19T07:17:58.535Z,7.87
2023-03-19T07:21:02.144Z,8.97
2023-03-19T07:24:06.519Z,8.73
2023-03-19T07:27:10.457Z,8.53
2023-03-19T07:30:16.271Z,7.77
2023-03-19T07:33:22.226Z,8.80
2023-03-19T07:36:26.389Z,7.87
2023-03-19T07:39:30.257Z,7.70
2023-03-19T07:42:34.096Z,8.67
2023-03-19T07:45:37.770Z,7.10
2023-03-19T07:48:42.741Z,7.60
2023-03-19T07:51:46.570Z,7.50
2023-03-19T07:54:50.388Z,7.43
2023-03-19T07:57:54.119Z,8.37
2023-03-19T08:00:57.641Z,7.77
2023-03-19T08:04:02.771Z,8.47
2023-03-19T08:07:06.953Z,9.03
2023-03-19T08:10:12.757Z,8.70
2023-03-19T08:13:16.268Z,8.90
2023-03-19T08:16:19.824Z,8.33
2023-03-19T08:19:24.993Z,8.70
2023-03-19T08:22:28.582Z,8.67
2023-03-19T08:25:32.736Z,9.20
2023-03-19T08:28:37.393Z,8.73
2023-03-19T08:31:41.063Z,8.83
2023-03-19T08:34:49.005Z,7.90
2023-03-19T08:37:52.999Z,8.10
2023-03-19T08:41:02.939Z,7.90
2023-03-19T08:44:07.093Z,8.33
2023-03-19T08:47:11.424Z,7.37
2023-03-19T08:50:17.881Z,7.27
2023-03-19T08:53:21.599Z,7.37
2023-03-19T08:56:25.162Z,7.37
2023-03-19T08:59:30.220Z,6.90
2023-03-19T09:02:34.585Z,6.57
2023-03-19T09:05:39.763Z,6.43
2023-03-19T09:08:44.614Z,5.60
2023-03-19T09:11:49.052Z,6.30
2023-03-19T09:14:52.595Z,6.40
2023-03-19T09:17:56.217Z,5.90
2023-03-19T09:21:01.962Z,6.57
2023-03-19T09:24:06.128Z,6.03
2023-03-19T09:27:09.873Z,6.03
2023-03-19T09:30:15.279Z,6.27
2023-03-19T09:33:21.463Z,6.60
2023-03-19T09:36:26.705Z,6.50
2023-03-19T09:39:30.867Z,6.20
2023-03-19T09:42:57.136Z,6.40
2023-03-19T09:46:05.403Z,5.80
2023-03-19T09:49:22.446Z,5.67
2023-03-19T09:52:42.486Z,5.37
2023-03-19T09:55:49.957Z,5.47
2023-03-19T09:58:54.088Z,4.87
2023-03-19T10:02:22.524Z,4.80
2023-03-19T10:05:38.343Z,5.53
2023-03-19T10:09:05.821Z,5.53
2023-03-19T10:12:35.967Z,5.10
2023-03-19T10:15:44.355Z,5.43
2023-03-19T10:18:52.903Z,5.30
2023-03-19T10:22:04.409Z,7.60
2023-03-19T10:25:20.009Z,5.43
2023-03-19T10:28:24.332Z,5.87
2023-03-19T10:31:30.345Z,5.10
2023-03-19T10:34:38.418Z,5.30
2023-03-19T10:37:41.924Z,5.03
2023-03-19T10:41:04.801Z,5.57
2023-03-19T10:44:18.320Z,5.30
2023-03-19T10:47:26.874Z,5.40
2023-03-19T10:50:36.148Z,5.13
2023-03-19T10:53:41.307Z,5.10
2023-03-19T10:56:49.347Z,5.20
2023-03-19T10:59:52.965Z,4.20
2023-03-19T11:02:59.159Z,3.87
2023-03-19T11:06:17.170Z,3.80
2023-03-19T11:09:32.943Z,4.13
2023-03-19T11:12:38.942Z,4.50
2023-03-19T11:15:42.696Z,4.10
2023-03-19T11:18:50.968Z,4.40
2023-03-19T11:22:18.957Z,4.10
2023-03-19T11:25:29.738Z,4.93
2023-03-19T11:28:38.380Z,6.17
2023-03-19T11:31:53.244Z,5.33
2023-03-19T11:35:04.429Z,4.30
2023-03-19T11:38:19.680Z,5.50
2023-03-19T11:41:35.196Z,6.27
2023-03-19T11:44:59.252Z,7.57
2023-03-19T11:48:32.622Z,6.97
2023-03-19T11:51:46.699Z,7.10
2023-03-19T11:55:09.911Z,7.00
2023-03-19T11:58:45.654Z,8.17
2023-03-19T12:02:34.225Z,6.90
2023-03-19T12:05:51.897Z,7.87
2023-03-19T12:09:05.980Z,7.70
2023-03-19T12:12:26.646Z,7.83
2023-03-19T12:15:41.550Z,8.40
2023-03-19T12:19:15.654Z,8.23
2023-03-19T12:22:41.482Z,10.83
2023-03-19T12:26:06.280Z,11.83
2023-03-19T12:29:25.600Z,10.70
2023-03-19T12:32:55.913Z,10.07
2023-03-19T12:36:04.854Z,11.40
2023-03-19T12:39:16.663Z,12.73
2023-03-19T12:42:24.495Z,13.97
2023-03-19T12:45:35.962Z,15.87
2023-03-19T12:48:45.941Z,18.67
2023-03-19T12:51:58.427Z,20.30
2023-03-19T12:55:15.193Z,19.80
2023-03-19T12:58:31.509Z,20.33
2023-03-19T13:01:42.485Z,19.93
2023-03-19T13:04:54.574Z,19.20
2023-03-19T13:08:13.515Z,21.40
2023-03-19T13:11:29.281Z,19.73
2023-03-19T13:14:47.506Z,19.10
2023-03-19T13:18:06.320Z,17.43
2023-03-19T13:21:24.726Z,16.83
2023-03-19T13:24:35.041Z,12.97
2023-03-19T13:27:39.217Z,12.13
2023-03-19T13:31:02.039Z,11.33
2023-03-19T13:34:20.400Z,10.60
2023-03-19T13:37:25.807Z,10.77
2023-03-19T13:40:48.923Z,10.60
2023-03-19T13:43:56.645Z,9.60
2023-03-19T13:47:04.543Z,10.20
2023-03-19T13:50:50.311Z,10.50
2023-03-19T13:54:08.391Z,10.60
2023-03-19T13:57:38.472Z,10.37
2023-03-19T14:01:01.516Z,9.13
2023-03-19T14:04:07.518Z,9.27
2023-03-19T14:07:21.942Z,10.50
2023-03-19T14:10:32.653Z,8.97
2023-03-19T14:13:43.253Z,9.00
2023-03-19T14:16:47.586Z,8.47
2023-03-19T14:19:54.095Z,8.90
2023-03-19T14:23:23.337Z,7.90
2023-03-19T14:26:29.966Z,9.17
2023-03-19T14:29:37.090Z,8.40
2023-03-19T14:32:47.809Z,9.53
2023-03-19T14:35:51.963Z,9.87
2023-03-19T14:39:01.276Z,9.67
2023-03-19T14:42:15.577Z,10.50
2023-03-19T14:45:49.868Z,10.13
2023-03-19T14:49:54.578Z,8.37
2023-03-19T14:53:06.403Z,8.97
2023-03-19T14:56:17.023Z,8.60
2023-03-19T14:59:20.785Z,8.40
2023-03-19T15:02:38.336Z,9.07
2023-03-19T15:05:42.325Z,8.63
2023-03-19T15:08:49.584Z,8.90
2023-03-19T15:12:31.681Z,8.57
2023-03-19T15:16:01.257Z,7.50
2023-03-19T15:19:11.229Z,7.53
2023-03-19T15:22:20.320Z,8.37
2023-03-19T15:25:25.244Z,8.17
2023-03-19T15:28:32.318Z,8.40
2023-03-19T15:31:52.690Z,8.20
2023-03-19T15:35:03.706Z,7.57
2023-03-19T15:38:13.490Z,7.47
2023-03-19T15:41:20.014Z,7.10
2023-03-19T15:44:33.309Z,8.17
2023-03-19T15:47:41.983Z,7.47
2023-03-19T15:50:51.443Z,7.10
2023-03-19T15:53:55.903Z,6.40
2023-03-19T15:56:59.591Z,6.83
2023-03-19T16:00:06.106Z,6.60
2023-03-19T16:03:18.677Z,6.67
2023-03-19T16:06:28.662Z,5.47
2023-03-19T16:09:35.488Z,5.77
2023-03-19T16:12:42.339Z,5.13
2023-03-19T16:15:49.599Z,5.80
2023-03-19T16:18:55.647Z,5.63
2023-03-19T16:22:03.274Z,5.67
2023-03-19T16:25:19.992Z,5.73
2023-03-19T16:28:25.210Z,5.87
2023-03-19T16:31:32.348Z,5.40
2023-03-19T16:34:46.890Z,5.70
2023-03-19T16:37:54.630Z,6.40
2023-03-19T16:41:24.273Z,5.47
2023-03-19T16:44:31.549Z,5.73
2023-03-19T16:47:35.133Z,5.97
2023-03-19T16:50:41.232Z,5.33
2023-03-19T16:53:46.872Z,6.13
2023-03-19T16:56:50.771Z,6.40
2023-03-19T16:59:54.558Z,7.10
2023-03-19T17:02:58.260Z,6.03
2023-03-19T17:06:04.534Z,5.70
2023-03-19T17:09:10.557Z,6.27
2023-03-19T17:12:18.915Z,5.40
2023-03-19T17:15:35.146Z,5.43
2023-03-19T17:18:43.347Z,5.70
2023-03-19T17:21:48.761Z,5.30
2023-03-19T17:24:54.830Z,6.17
2023-03-19T17:27:58.477Z,5.90
2023-03-19T17:31:02.118Z,5.83
2023-03-19T17:34:11.757Z,5.50
2023-03-19T17:37:15.876Z,5.93
2023-03-19T17:40:25.324Z,5.60
2023-03-19T17:43:29.124Z,5.90
2023-03-19T17:46:39.614Z,6.30
2023-03-19T17:49:43.641Z,6.20
2023-03-19T17:52:48.715Z,6.90
2023-03-19T17:55:53.698Z,8.27
2023-03-19T17:58:57.794Z,7.90
2023-03-19T18:02:02.487Z,9.13
2023-03-19T18:05:07.492Z,7.60
2023-03-19T18:08:16.695Z,7.87
2023-03-19T18:11:21.748Z,7.67
2023-03-19T18:14:26.453Z,7.23
2023-03-19T18:17:30.371Z,6.83
2023-03-19T18:20:38.856Z,7.47
2023-03-19T18:23:43.157Z,11.57
2023-03-19T18:26:49.561Z,8.27
2023-03-19T18:29:54.211Z,10.70
2023-03-19T18:33:03.228Z,10.63
2023-03-19T18:36:08.941Z,9.40
2023-03-19T18:39:15.693Z,7.27
2023-03-19T18:42:22.698Z,8.87
2023-03-19T18:45:36.616Z,8.40
2023-03-19T18:48:40.300Z,7.17
2023-03-19T18:52:00.732Z,8.93
2023-03-19T18:55:08.450Z,8.23
2023-03-19T18:58:21.271Z,8.43
2023-03-19T19:01:26.274Z,9.10
2023-03-19T19:04:31.295Z,8.73
2023-03-19T19:07:35.085Z,9.63
2023-03-19T19:10:44.514Z,9.50
2023-03-19T19:13:56.463Z,9.53
2023-03-19T19:17:00.512Z,10.23
2023-03-19T19:20:04.212Z,9.07
2023-03-19T19:23:07.875Z,7.97
2023-03-19T19:26:23.730Z,8.60
2023-03-19T19:29:31.201Z,8.87
2023-03-19T19:32:36.493Z,9.30
2023-03-19T19:35:40.205Z,9.83
2023-03-19T19:38:43.680Z,9.13
2023-03-19T19:41:48.009Z,9.33
2023-03-19T19:44:59.840Z,10.23
2023-03-19T19:48:04.293Z,12.60
2023-03-19T19:51:09.252Z,14.90
2023-03-19T19:54:12.788Z,18.90
2023-03-19T19:57:21.980Z,19.43
2023-03-19T20:00:30.564Z,23.17
2023-03-19T20:03:35.212Z,23.60
2023-03-19T20:06:38.780Z,27.40
2023-03-19T20:09:42.604Z,30.77
2023-03-19T20:12:51.126Z,32.57
2023-03-19T20:15:58.509Z,28.53
2023-03-19T20:19:02.064Z,28.13
2023-03-19T20:22:05.633Z,29.60
2023-03-19T20:25:10.028Z,30.20
2023-03-19T20:28:23.004Z,26.37
2023-03-19T20:31:31.124Z,25.33
2023-03-19T20:34:39.482Z,30.70
2023-03-19T20:37:43.350Z,25.93
2023-03-19T20:40:51.241Z,25.33
2023-03-19T20:43:56.674Z,27.67
2023-03-19T20:47:01.735Z,26.17
2023-03-19T20:50:05.874Z,22.70
2023-03-19T20:53:09.702Z,22.93
2023-03-19T20:56:17.431Z,24.67
2023-03-19T20:59:21.091Z,23.67
2023-03-19T21:02:27.675Z,23.40
2023-03-19T21:05:37.375Z,24.30
2023-03-19T21:08:43.883Z,23.77
2023-03-19T21:11:49.180Z,26.43
2023-03-19T21:14:52.974Z,24.50
2023-03-19T21:17:58.700Z,24.10
2023-03-19T21:21:02.260Z,24.20
2023-03-19T21:24:13.736Z,23.83
2023-03-19T21:27:25.377Z,25.17
2023-03-19T21:30:29.026Z,23.67
2023-03-19T21:33:36.300Z,23.67
2023-03-19T21:36:39.998Z,22.80
2023-03-19T21:39:43.806Z,25.57
2023-03-19T21:42:52.224Z,23.53
2023-03-19T21:45:56.581Z,24.20
2023-03-19T21:49:01.504Z,24.13
2023-03-19T21:52:04.977Z,22.13
2023-03-19T21:55:12.020Z,24.83
2023-03-19T21:58:19.494Z,22.77
2023-03-19T22:01:25.556Z,25.53
2023-03-19T22:04:30.424Z,23.10
2023-03-19T22:07:33.997Z,23.63
2023-03-19T22:10:37.941Z,23.60
2023-03-19T22:13:43.297Z,23.30
2023-03-19T22:16:47.828Z,22.90
2023-03-19T22:19:52.875Z,23.30
2023-03-19T22:22:58.319Z,21.60
2023-03-19T22:26:01.918Z,23.33
2023-03-19T22:29:12.477Z,22.67
2023-03-19T22:32:19.414Z,23.00
2023-03-19T22:35:25.160Z,23.23
2023-03-19T22:38:28.656Z,23.30
2023-03-19T22:41:35.948Z,23.07
2023-03-19T22:44:39.536Z,23.40
2023-03-19T22:47:43.370Z,24.53
2023-03-19T22:50:48.162Z,22.97
2023-03-19T22:53:52.636Z,22.47
2023-03-19T22:56:56.105Z,24.60
2023-03-19T22:59:59.603Z,22.17
2023-03-19T23:03:03.265Z,22.53
2023-03-19T23:06:28.839Z,24.47
2023-03-19T23:09:37.764Z,21.80
2023-03-19T23:12:41.606Z,22.87
2023-03-19T23:15:45.846Z,21.90
2023-03-19T23:18:50.669Z,22.17
2023-03-19T23:21:56.363Z,23.27
2023-03-19T23:25:02.129Z,24.10
2023-03-19T23:28:06.004Z,23.13
2023-03-19T23:31:12.402Z,22.83
2023-03-19T23:34:17.160Z,23.03
2023-03-19T23:37:22.780Z,23.50
2023-03-19T23:40:31.324Z,23.30
2023-03-19T23:43:36.628Z,22.70
2023-03-19T23:46:40.554Z,22.90
2023-03-19T23:49:44.902Z,23.33
2023-03-19T23:52:50.347Z,20.63
2023-03-19T23:55:59.043Z,20.73
2023-03-19T23:59:02.721Z,19.97
